sensor_id;sensor_type;location;lat;lon;timestamp;temperature;humidity
62991;DHT22;49084;48.204;16.202;2023-06-26T00:00:32;14.60;99.90
62991;DHT22;49084;48.204;16.202;2023-06-26T00:02:58;14.60;99.90
62991;DHT22;49084;48.204;16.202;2023-06-26T00:05:23;14.60;99.90
62991;DHT22;49084;48.204;16.202;2023-06-26T00:07:49;14.60;99.90
62991;DHT22;49084;48.204;16.202;2023-06-26T00:10:15;14.60;99.90
62991;DHT22;49084;48.204;16.202;2023-06-26T00:12:40;14.50;99.90
62991;DHT22;49084;48.204;16.202;2023-06-26T00:15:06;14.50;99.90
62991;DHT22;49084;48.204;16.202;2023-06-26T00:17:33;14.50;99.90
62991;DHT22;49084;48.204;16.202;2023-06-26T00:20:02;14.50;99.90
62991;DHT22;49084;48.204;16.202;2023-06-26T00:22:28;14.50;99.90
62991;DHT22;49084;48.204;16.202;2023-06-26T00:24:54;14.50;99.90
62991;DHT22;49084;48.204;16.202;2023-06-26T00:27:20;14.50;99.90
62991;DHT22;49084;48.204;16.202;2023-06-26T00:29:46;14.50;99.90
62991;DHT22;49084;48.204;16.202;2023-06-26T00:32:11;14.50;99.90
62991;DHT22;49084;48.204;16.202;2023-06-26T00:34:37;14.40;99.90
62991;DHT22;49084;48.204;16.202;2023-06-26T00:37:03;14.40;99.90
62991;DHT22;49084;48.204;16.202;2023-06-26T00:39:29;14.40;99.90
62991;DHT22;49084;48.204;16.202;2023-06-26T00:41:55;14.40;99.90
62991;DHT22;49084;48.204;16.202;2023-06-26T00:44:20;14.30;99.90
62991;DHT22;49084;48.204;16.202;2023-06-26T00:46:47;14.30;99.90
62991;DHT22;49084;48.204;16.202;2023-06-26T00:49:13;14.30;99.90
62991;DHT22;49084;48.204;16.202;2023-06-26T00:51:39;14.30;99.90
62991;DHT22;49084;48.204;16.202;2023-06-26T00:54:05;14.30;99.90
62991;DHT22;49084;48.204;16.202;2023-06-26T00:56:32;14.30;99.90
62991;DHT22;49084;48.204;16.202;2023-06-26T00:58:58;14.30;99.90
62991;DHT22;49084;48.204;16.202;2023-06-26T01:01:23;14.20;99.90
62991;DHT22;49084;48.204;16.202;2023-06-26T01:03:51;14.20;99.90
62991;DHT22;49084;48.204;16.202;2023-06-26T01:06:20;14.20;99.90
62991;DHT22;49084;48.204;16.202;2023-06-26T01:08:47;14.20;99.90
62991;DHT22;49084;48.204;16.202;2023-06-26T01:11:14;14.20;99.90
62991;DHT22;49084;48.204;16.202;2023-06-26T01:13:42;14.20;99.90
62991;DHT22;49084;48.204;16.202;2023-06-26T01:16:10;14.10;99.90
62991;DHT22;49084;48.204;16.202;2023-06-26T01:18:38;14.10;99.90
62991;DHT22;49084;48.204;16.202;2023-06-26T01:21:07;14.10;99.90
62991;DHT22;49084;48.204;16.202;2023-06-26T01:23:47;14.10;99.90
62991;DHT22;49084;48.204;16.202;2023-06-26T01:26:20;14.10;99.90
62991;DHT22;49084;48.204;16.202;2023-06-26T01:28:48;14.00;99.90
62991;DHT22;49084;48.204;16.202;2023-06-26T01:31:15;14.00;99.90
62991;DHT22;49084;48.204;16.202;2023-06-26T01:33:41;14.00;99.90
62991;DHT22;49084;48.204;16.202;2023-06-26T01:36:08;14.00;99.90
62991;DHT22;49084;48.204;16.202;2023-06-26T01:38:34;13.90;99.90
62991;DHT22;49084;48.204;16.202;2023-06-26T01:41:06;13.90;99.90
62991;DHT22;49084;48.204;16.202;2023-06-26T01:55:05;13.90;99.90
62991;DHT22;49084;48.204;16.202;2023-06-26T01:57:35;13.80;99.90
62991;DHT22;49084;48.204;16.202;2023-06-26T02:00:02;13.80;99.90
62991;DHT22;49084;48.204;16.202;2023-06-26T02:02:29;13.80;99.90
62991;DHT22;49084;48.204;16.202;2023-06-26T02:04:55;13.70;99.90
62991;DHT22;49084;48.204;16.202;2023-06-26T02:07:20;13.70;99.90
62991;DHT22;49084;48.204;16.202;2023-06-26T02:09:46;13.60;99.90
62991;DHT22;49084;48.204;16.202;2023-06-26T02:12:12;13.70;99.90
62991;DHT22;49084;48.204;16.202;2023-06-26T02:14:37;13.60;99.90
62991;DHT22;49084;48.204;16.202;2023-06-26T02:17:04;13.60;99.90
62991;DHT22;49084;48.204;16.202;2023-06-26T02:19:30;13.60;99.90
62991;DHT22;49084;48.204;16.202;2023-06-26T02:21:55;13.60;99.90
62991;DHT22;49084;48.204;16.202;2023-06-26T02:24:21;13.60;99.90
62991;DHT22;49084;48.204;16.202;2023-06-26T02:26:47;13.50;99.90
62991;DHT22;49084;48.204;16.202;2023-06-26T02:29:14;13.50;99.90
62991;DHT22;49084;48.204;16.202;2023-06-26T02:31:40;13.50;99.90
62991;DHT22;49084;48.204;16.202;2023-06-26T02:34:06;13.50;99.90
62991;DHT22;49084;48.204;16.202;2023-06-26T02:36:32;13.50;99.90
62991;DHT22;49084;48.204;16.202;2023-06-26T02:38:57;13.40;99.90
62991;DHT22;49084;48.204;16.202;2023-06-26T02:41:23;13.50;99.90
62991;DHT22;49084;48.204;16.202;2023-06-26T02:43:49;13.40;99.90
62991;DHT22;49084;48.204;16.202;2023-06-26T02:46:14;13.40;99.90
62991;DHT22;49084;48.204;16.202;2023-06-26T02:48:40;13.40;99.90
62991;DHT22;49084;48.204;16.202;2023-06-26T02:51:06;13.40;99.90
62991;DHT22;49084;48.204;16.202;2023-06-26T02:53:32;13.40;99.90
62991;DHT22;49084;48.204;16.202;2023-06-26T02:55:58;13.40;99.90
62991;DHT22;49084;48.204;16.202;2023-06-26T02:58:23;13.40;99.90
62991;DHT22;49084;48.204;16.202;2023-06-26T03:00:49;13.40;99.90
62991;DHT22;49084;48.204;16.202;2023-06-26T03:03:15;13.40;99.90
62991;DHT22;49084;48.204;16.202;2023-06-26T03:05:40;13.40;99.90
62991;DHT22;49084;48.204;16.202;2023-06-26T03:08:06;13.40;99.90
62991;DHT22;49084;48.204;16.202;2023-06-26T03:10:31;13.40;99.90
62991;DHT22;49084;48.204;16.202;2023-06-26T03:12:57;13.40;99.90
62991;DHT22;49084;48.204;16.202;2023-06-26T03:15:23;13.40;99.90
62991;DHT22;49084;48.204;16.202;2023-06-26T03:17:48;13.40;99.90
62991;DHT22;49084;48.204;16.202;2023-06-26T03:20:14;13.40;99.90
62991;DHT22;49084;48.204;16.202;2023-06-26T03:22:40;13.50;99.90
62991;DHT22;49084;48.204;16.202;2023-06-26T03:25:06;13.50;99.90
62991;DHT22;49084;48.204;16.202;2023-06-26T03:27:32;13.50;99.90
62991;DHT22;49084;48.204;16.202;2023-06-26T03:29:58;13.50;99.90
62991;DHT22;49084;48.204;16.202;2023-06-26T03:32:23;13.50;99.90
62991;DHT22;49084;48.204;16.202;2023-06-26T03:34:49;13.50;99.90
62991;DHT22;49084;48.204;16.202;2023-06-26T03:37:14;13.50;99.90
62991;DHT22;49084;48.204;16.202;2023-06-26T03:39:40;13.60;99.90
62991;DHT22;49084;48.204;16.202;2023-06-26T03:42:06;13.50;99.90
62991;DHT22;49084;48.204;16.202;2023-06-26T03:44:32;13.60;99.90
62991;DHT22;49084;48.204;16.202;2023-06-26T03:46:58;13.60;99.90
62991;DHT22;49084;48.204;16.202;2023-06-26T03:49:23;13.60;99.90
62991;DHT22;49084;48.204;16.202;2023-06-26T03:51:49;13.60;99.90
62991;DHT22;49084;48.204;16.202;2023-06-26T03:54:15;13.60;99.90
62991;DHT22;49084;48.204;16.202;2023-06-26T03:56:40;13.60;99.90
62991;DHT22;49084;48.204;16.202;2023-06-26T03:59:06;13.60;99.90
62991;DHT22;49084;48.204;16.202;2023-06-26T04:01:31;13.70;99.90
62991;DHT22;49084;48.204;16.202;2023-06-26T04:03:57;13.80;99.90
62991;DHT22;49084;48.204;16.202;2023-06-26T04:06:23;13.80;99.90
62991;DHT22;49084;48.204;16.202;2023-06-26T04:08:49;13.90;99.90
62991;DHT22;49084;48.204;16.202;2023-06-26T04:11:14;13.90;99.90
62991;DHT22;49084;48.204;16.202;2023-06-26T04:13:40;13.90;99.90
62991;DHT22;49084;48.204;16.202;2023-06-26T04:16:05;14.00;99.90
62991;DHT22;49084;48.204;16.202;2023-06-26T04:18:32;14.00;99.90
62991;DHT22;49084;48.204;16.202;2023-06-26T04:21:18;14.10;99.90
62991;DHT22;49084;48.204;16.202;2023-06-26T04:23:43;14.20;99.90
62991;DHT22;49084;48.204;16.202;2023-06-26T04:26:09;14.30;99.90
62991;DHT22;49084;48.204;16.202;2023-06-26T04:28:38;14.40;99.90
62991;DHT22;49084;48.204;16.202;2023-06-26T04:31:04;14.40;99.90
62991;DHT22;49084;48.204;16.202;2023-06-26T04:33:30;14.50;99.90
62991;DHT22;49084;48.204;16.202;2023-06-26T04:35:55;14.50;99.90
62991;DHT22;49084;48.204;16.202;2023-06-26T04:38:21;14.60;99.90
62991;DHT22;49084;48.204;16.202;2023-06-26T04:40:48;14.70;99.90
62991;DHT22;49084;48.204;16.202;2023-06-26T04:43:13;14.70;99.90
62991;DHT22;49084;48.204;16.202;2023-06-26T04:45:39;14.80;99.90
62991;DHT22;49084;48.204;16.202;2023-06-26T04:48:11;14.90;99.90
62991;DHT22;49084;48.204;16.202;2023-06-26T04:50:36;14.90;99.90
62991;DHT22;49084;48.204;16.202;2023-06-26T04:53:02;15.00;99.90
62991;DHT22;49084;48.204;16.202;2023-06-26T04:55:28;15.10;99.90
62991;DHT22;49084;48.204;16.202;2023-06-26T04:57:54;15.10;99.90
62991;DHT22;49084;48.204;16.202;2023-06-26T05:00:19;15.20;99.90
62991;DHT22;49084;48.204;16.202;2023-06-26T05:02:45;15.20;99.90
62991;DHT22;49084;48.204;16.202;2023-06-26T05:05:11;15.30;99.90
62991;DHT22;49084;48.204;16.202;2023-06-26T05:07:38;15.50;99.90
62991;DHT22;49084;48.204;16.202;2023-06-26T05:10:04;15.60;99.90
62991;DHT22;49084;48.204;16.202;2023-06-26T05:12:29;15.60;99.90
62991;DHT22;49084;48.204;16.202;2023-06-26T05:14:55;15.70;99.90
62991;DHT22;49084;48.204;16.202;2023-06-26T05:17:21;15.80;99.90
62991;DHT22;49084;48.204;16.202;2023-06-26T05:19:46;15.90;99.90
62991;DHT22;49084;48.204;16.202;2023-06-26T05:22:16;16.10;99.90
62991;DHT22;49084;48.204;16.202;2023-06-26T05:24:46;16.20;99.90
62991;DHT22;49084;48.204;16.202;2023-06-26T05:27:12;16.30;99.90
62991;DHT22;49084;48.204;16.202;2023-06-26T05:29:45;16.40;99.90
62991;DHT22;49084;48.204;16.202;2023-06-26T05:32:11;16.60;99.90
62991;DHT22;49084;48.204;16.202;2023-06-26T05:34:38;16.70;99.90
62991;DHT22;49084;48.204;16.202;2023-06-26T05:37:05;16.80;99.90
62991;DHT22;49084;48.204;16.202;2023-06-26T05:39:32;17.00;99.90
62991;DHT22;49084;48.204;16.202;2023-06-26T05:41:58;17.10;99.90
62991;DHT22;49084;48.204;16.202;2023-06-26T05:44:23;17.30;99.90
62991;DHT22;49084;48.204;16.202;2023-06-26T05:46:49;17.40;99.90
62991;DHT22;49084;48.204;16.202;2023-06-26T05:49:15;17.60;99.90
62991;DHT22;49084;48.204;16.202;2023-06-26T05:51:41;17.80;99.90
62991;DHT22;49084;48.204;16.202;2023-06-26T05:54:07;17.90;99.90
62991;DHT22;49084;48.204;16.202;2023-06-26T05:56:33;18.10;99.90
62991;DHT22;49084;48.204;16.202;2023-06-26T05:58:59;18.20;99.90
62991;DHT22;49084;48.204;16.202;2023-06-26T06:01:24;18.40;99.90
62991;DHT22;49084;48.204;16.202;2023-06-26T06:03:50;18.50;99.90
62991;DHT22;49084;48.204;16.202;2023-06-26T06:06:17;18.70;99.90
62991;DHT22;49084;48.204;16.202;2023-06-26T06:08:42;18.90;99.90
62991;DHT22;49084;48.204;16.202;2023-06-26T06:11:08;19.00;99.90
62991;DHT22;49084;48.204;16.202;2023-06-26T06:13:33;19.10;99.90
62991;DHT22;49084;48.204;16.202;2023-06-26T06:15:59;19.30;99.90
62991;DHT22;49084;48.204;16.202;2023-06-26T06:18:25;19.40;99.90
62991;DHT22;49084;48.204;16.202;2023-06-26T06:20:50;19.70;99.90
62991;DHT22;49084;48.204;16.202;2023-06-26T06:23:16;20.20;99.90
62991;DHT22;49084;48.204;16.202;2023-06-26T06:25:41;20.70;99.90
62991;DHT22;49084;48.204;16.202;2023-06-26T06:28:07;21.30;99.90
62991;DHT22;49084;48.204;16.202;2023-06-26T06:30:33;21.80;99.90
62991;DHT22;49084;48.204;16.202;2023-06-26T06:32:58;22.20;99.90
62991;DHT22;49084;48.204;16.202;2023-06-26T06:35:24;22.60;99.90
62991;DHT22;49084;48.204;16.202;2023-06-26T06:37:50;23.00;99.90
62991;DHT22;49084;48.204;16.202;2023-06-26T06:40:16;23.30;99.90
62991;DHT22;49084;48.204;16.202;2023-06-26T06:42:41;23.60;99.90
62991;DHT22;49084;48.204;16.202;2023-06-26T06:45:08;23.70;99.90
62991;DHT22;49084;48.204;16.202;2023-06-26T06:47:34;24.00;99.90
62991;DHT22;49084;48.204;16.202;2023-06-26T06:50:00;24.10;99.90
62991;DHT22;49084;48.204;16.202;2023-06-26T06:52:37;24.20;99.90
62991;DHT22;49084;48.204;16.202;2023-06-26T06:55:04;24.10;99.90
62991;DHT22;49084;48.204;16.202;2023-06-26T06:57:32;24.20;99.90
62991;DHT22;49084;48.204;16.202;2023-06-26T07:00:02;24.40;99.80
62991;DHT22;49084;48.204;16.202;2023-06-26T07:02:29;24.60;98.10
62991;DHT22;49084;48.204;16.202;2023-06-26T07:04:55;24.70;97.40
62991;DHT22;49084;48.204;16.202;2023-06-26T07:07:21;24.80;97.30
62991;DHT22;49084;48.204;16.202;2023-06-26T07:09:46;25.10;96.80
62991;DHT22;49084;48.204;16.202;2023-06-26T07:12:12;25.30;93.70
62991;DHT22;49084;48.204;16.202;2023-06-26T07:14:39;25.10;93.50
62991;DHT22;49084;48.204;16.202;2023-06-26T07:17:05;25.20;91.90
62991;DHT22;49084;48.204;16.202;2023-06-26T07:19:30;25.40;91.70
62991;DHT22;49084;48.204;16.202;2023-06-26T07:21:56;25.60;90.90
62991;DHT22;49084;48.204;16.202;2023-06-26T07:24:21;25.80;90.10
62991;DHT22;49084;48.204;16.202;2023-06-26T07:26:47;26.10;89.50
62991;DHT22;49084;48.204;16.202;2023-06-26T07:29:13;26.40;85.70
62991;DHT22;49084;48.204;16.202;2023-06-26T07:31:38;26.50;83.30
62991;DHT22;49084;48.204;16.202;2023-06-26T07:34:04;26.70;83.20
62991;DHT22;49084;48.204;16.202;2023-06-26T07:36:29;27.00;79.20
62991;DHT22;49084;48.204;16.202;2023-06-26T07:38:55;27.40;77.10
62991;DHT22;49084;48.204;16.202;2023-06-26T07:41:21;27.70;77.80
62991;DHT22;49084;48.204;16.202;2023-06-26T07:43:46;28.20;76.90
62991;DHT22;49084;48.204;16.202;2023-06-26T07:46:12;28.50;72.90
62991;DHT22;49084;48.204;16.202;2023-06-26T07:48:37;28.60;68.70
62991;DHT22;49084;48.204;16.202;2023-06-26T07:51:03;28.70;69.20
62991;DHT22;49084;48.204;16.202;2023-06-26T07:53:29;28.50;68.60
62991;DHT22;49084;48.204;16.202;2023-06-26T07:55:54;28.40;67.70
62991;DHT22;49084;48.204;16.202;2023-06-26T07:58:20;28.60;65.80
62991;DHT22;49084;48.204;16.202;2023-06-26T08:00:45;28.80;65.50
62991;DHT22;49084;48.204;16.202;2023-06-26T08:03:11;29.10;65.10
62991;DHT22;49084;48.204;16.202;2023-06-26T08:05:37;29.30;64.40
62991;DHT22;49084;48.204;16.202;2023-06-26T08:08:02;29.20;65.10
62991;DHT22;49084;48.204;16.202;2023-06-26T08:10:28;29.40;66.10
62991;DHT22;49084;48.204;16.202;2023-06-26T08:12:55;29.80;65.50
62991;DHT22;49084;48.204;16.202;2023-06-26T08:15:21;30.20;64.80
62991;DHT22;49084;48.204;16.202;2023-06-26T08:17:47;30.10;64.40
62991;DHT22;49084;48.204;16.202;2023-06-26T08:20:12;30.10;64.60
62991;DHT22;49084;48.204;16.202;2023-06-26T08:22:39;30.30;64.50
62991;DHT22;49084;48.204;16.202;2023-06-26T08:25:05;30.40;63.90
62991;DHT22;49084;48.204;16.202;2023-06-26T08:27:32;30.50;63.10
62991;DHT22;49084;48.204;16.202;2023-06-26T08:29:57;30.80;62.40
62991;DHT22;49084;48.204;16.202;2023-06-26T08:32:24;30.70;62.10
62991;DHT22;49084;48.204;16.202;2023-06-26T08:34:50;30.70;62.10
62991;DHT22;49084;48.204;16.202;2023-06-26T08:37:16;30.40;62.90
62991;DHT22;49084;48.204;16.202;2023-06-26T08:39:41;30.60;62.20
62991;DHT22;49084;48.204;16.202;2023-06-26T08:42:07;30.80;60.60
62991;DHT22;49084;48.204;16.202;2023-06-26T08:44:33;30.90;60.40
62991;DHT22;49084;48.204;16.202;2023-06-26T08:47:01;31.00;61.50
62991;DHT22;49084;48.204;16.202;2023-06-26T08:49:50;31.10;60.70
62991;DHT22;49084;48.204;16.202;2023-06-26T08:52:23;31.30;60.40
62991;DHT22;49084;48.204;16.202;2023-06-26T08:54:56;31.50;60.10
62991;DHT22;49084;48.204;16.202;2023-06-26T08:57:23;31.80;57.50
62991;DHT22;49084;48.204;16.202;2023-06-26T08:59:50;31.70;57.50
62991;DHT22;49084;48.204;16.202;2023-06-26T09:02:17;31.70;57.50
62991;DHT22;49084;48.204;16.202;2023-06-26T09:04:42;32.10;57.20
62991;DHT22;49084;48.204;16.202;2023-06-26T09:07:08;32.10;56.20
62991;DHT22;49084;48.204;16.202;2023-06-26T09:09:35;32.20;56.50
62991;DHT22;49084;48.204;16.202;2023-06-26T09:12:02;32.30;55.20
62991;DHT22;49084;48.204;16.202;2023-06-26T09:14:29;32.10;55.10
62991;DHT22;49084;48.204;16.202;2023-06-26T09:16:55;32.20;54.40
62991;DHT22;49084;48.204;16.202;2023-06-26T09:19:20;32.30;54.50
62991;DHT22;49084;48.204;16.202;2023-06-26T09:21:49;32.30;55.10
62991;DHT22;49084;48.204;16.202;2023-06-26T09:24:16;31.90;55.30
62991;DHT22;49084;48.204;16.202;2023-06-26T09:26:42;32.00;55.00
62991;DHT22;49084;48.204;16.202;2023-06-26T09:29:09;32.00;55.00
62991;DHT22;49084;48.204;16.202;2023-06-26T09:31:39;32.30;55.20
62991;DHT22;49084;48.204;16.202;2023-06-26T09:34:05;32.30;53.60
62991;DHT22;49084;48.204;16.202;2023-06-26T09:36:31;32.70;52.70
62991;DHT22;49084;48.204;16.202;2023-06-26T09:39:06;32.80;53.30
62991;DHT22;49084;48.204;16.202;2023-06-26T09:41:40;33.20;51.80
62991;DHT22;49084;48.204;16.202;2023-06-26T09:44:07;33.40;51.20
62991;DHT22;49084;48.204;16.202;2023-06-26T09:46:35;33.40;51.10
62991;DHT22;49084;48.204;16.202;2023-06-26T09:49:08;33.60;52.20
62991;DHT22;49084;48.204;16.202;2023-06-26T09:51:34;33.60;50.60
62991;DHT22;49084;48.204;16.202;2023-06-26T09:54:01;33.30;50.90
62991;DHT22;49084;48.204;16.202;2023-06-26T09:56:28;33.60;50.30
62991;DHT22;49084;48.204;16.202;2023-06-26T09:58:59;33.50;50.00
62991;DHT22;49084;48.204;16.202;2023-06-26T10:01:29;33.30;49.90
62991;DHT22;49084;48.204;16.202;2023-06-26T10:03:55;33.60;48.90
62991;DHT22;49084;48.204;16.202;2023-06-26T10:06:34;33.60;48.80
62991;DHT22;49084;48.204;16.202;2023-06-26T10:09:01;33.60;48.20
62991;DHT22;49084;48.204;16.202;2023-06-26T10:12:19;33.40;48.10
62991;DHT22;49084;48.204;16.202;2023-06-26T10:14:20;33.60;48.30
62991;DHT22;49084;48.204;16.202;2023-06-26T10:16:48;33.80;47.80
62991;DHT22;49084;48.204;16.202;2023-06-26T10:19:17;34.30;46.60
62991;DHT22;49084;48.204;16.202;2023-06-26T10:21:44;34.50;46.10
62991;DHT22;49084;48.204;16.202;2023-06-26T10:24:12;34.10;45.60
62991;DHT22;49084;48.204;16.202;2023-06-26T10:26:44;33.40;48.10
62991;DHT22;49084;48.204;16.202;2023-06-26T10:29:11;33.30;48.20
62991;DHT22;49084;48.204;16.202;2023-06-26T10:31:40;33.10;48.40
62991;DHT22;49084;48.204;16.202;2023-06-26T10:34:08;32.50;48.90
62991;DHT22;49084;48.204;16.202;2023-06-26T10:36:35;32.60;49.60
62991;DHT22;49084;48.204;16.202;2023-06-26T10:39:06;32.80;49.30
62991;DHT22;49084;48.204;16.202;2023-06-26T10:41:39;32.70;48.10
62991;DHT22;49084;48.204;16.202;2023-06-26T10:44:12;32.80;47.90
62991;DHT22;49084;48.204;16.202;2023-06-26T10:46:54;32.70;46.90
62991;DHT22;49084;48.204;16.202;2023-06-26T10:49:21;33.20;47.90
62991;DHT22;49084;48.204;16.202;2023-06-26T10:51:50;33.40;47.10
62991;DHT22;49084;48.204;16.202;2023-06-26T10:54:18;33.20;47.40
62991;DHT22;49084;48.204;16.202;2023-06-26T10:56:46;33.10;47.00
62991;DHT22;49084;48.204;16.202;2023-06-26T10:59:20;33.30;47.50
62991;DHT22;49084;48.204;16.202;2023-06-26T11:02:04;33.20;47.50
62991;DHT22;49084;48.204;16.202;2023-06-26T11:04:50;33.30;47.10
62991;DHT22;49084;48.204;16.202;2023-06-26T11:07:23;33.60;46.20
62991;DHT22;49084;48.204;16.202;2023-06-26T11:10:28;33.80;46.00
62991;DHT22;49084;48.204;16.202;2023-06-26T11:12:46;33.70;45.80
62991;DHT22;49084;48.204;16.202;2023-06-26T11:15:15;33.70;46.10
62991;DHT22;49084;48.204;16.202;2023-06-26T11:17:42;34.20;45.60
62991;DHT22;49084;48.204;16.202;2023-06-26T11:20:13;34.20;44.60
62991;DHT22;49084;48.204;16.202;2023-06-26T11:22:40;34.40;44.70
62991;DHT22;49084;48.204;16.202;2023-06-26T11:25:07;35.10;44.50
62991;DHT22;49084;48.204;16.202;2023-06-26T11:27:42;35.80;43.70
62991;DHT22;49084;48.204;16.202;2023-06-26T11:30:10;36.00;42.20
62991;DHT22;49084;48.204;16.202;2023-06-26T11:32:37;35.70;43.60
62991;DHT22;49084;48.204;16.202;2023-06-26T11:35:04;35.70;43.50
62991;DHT22;49084;48.204;16.202;2023-06-26T11:37:31;35.20;43.40
62991;DHT22;49084;48.204;16.202;2023-06-26T11:39:57;35.00;43.40
62991;DHT22;49084;48.204;16.202;2023-06-26T11:42:23;34.60;44.60
62991;DHT22;49084;48.204;16.202;2023-06-26T11:44:51;34.20;44.20
62991;DHT22;49084;48.204;16.202;2023-06-26T11:47:19;34.50;44.60
62991;DHT22;49084;48.204;16.202;2023-06-26T11:49:47;35.20;44.70
62991;DHT22;49084;48.204;16.202;2023-06-26T11:52:13;35.40;44.60
62991;DHT22;49084;48.204;16.202;2023-06-26T11:54:40;35.90;43.60
62991;DHT22;49084;48.204;16.202;2023-06-26T11:57:05;36.50;43.00
62991;DHT22;49084;48.204;16.202;2023-06-26T11:59:38;37.10;42.90
62991;DHT22;49084;48.204;16.202;2023-06-26T12:02:09;37.90;42.00
62991;DHT22;49084;48.204;16.202;2023-06-26T12:04:37;38.70;40.70
62991;DHT22;49084;48.204;16.202;2023-06-26T12:07:05;39.00;39.90
62991;DHT22;49084;48.204;16.202;2023-06-26T12:09:34;39.10;39.30
62991;DHT22;49084;48.204;16.202;2023-06-26T12:12:04;38.30;39.50
62991;DHT22;49084;48.204;16.202;2023-06-26T12:14:30;37.80;40.30
62991;DHT22;49084;48.204;16.202;2023-06-26T12:17:04;37.30;40.50
62991;DHT22;49084;48.204;16.202;2023-06-26T12:19:30;37.70;40.20
62991;DHT22;49084;48.204;16.202;2023-06-26T12:21:55;38.10;40.30
62991;DHT22;49084;48.204;16.202;2023-06-26T12:24:23;38.20;39.60
62991;DHT22;49084;48.204;16.202;2023-06-26T12:26:55;38.80;39.70
62991;DHT22;49084;48.204;16.202;2023-06-26T12:29:29;38.90;38.40
62991;DHT22;49084;48.204;16.202;2023-06-26T12:31:56;38.80;39.30
62991;DHT22;49084;48.204;16.202;2023-06-26T12:34:33;39.30;39.50
62991;DHT22;49084;48.204;16.202;2023-06-26T12:37:04;39.60;39.00
62991;DHT22;49084;48.204;16.202;2023-06-26T12:39:54;39.50;39.00
62991;DHT22;49084;48.204;16.202;2023-06-26T12:42:22;39.60;38.90
62991;DHT22;49084;48.204;16.202;2023-06-26T12:44:49;39.30;38.70
62991;DHT22;49084;48.204;16.202;2023-06-26T12:47:16;38.70;38.00
62991;DHT22;49084;48.204;16.202;2023-06-26T12:49:44;38.80;38.10
62991;DHT22;49084;48.204;16.202;2023-06-26T12:52:12;37.70;39.00
62991;DHT22;49084;48.204;16.202;2023-06-26T12:54:40;36.50;40.60
62991;DHT22;49084;48.204;16.202;2023-06-26T12:57:06;36.80;40.80
62991;DHT22;49084;48.204;16.202;2023-06-26T12:59:33;36.50;41.10
62991;DHT22;49084;48.204;16.202;2023-06-26T13:02:00;36.20;42.20
62991;DHT22;49084;48.204;16.202;2023-06-26T13:04:26;36.60;41.10
62991;DHT22;49084;48.204;16.202;2023-06-26T13:06:52;37.30;40.50
62991;DHT22;49084;48.204;16.202;2023-06-26T13:09:20;36.30;41.80
62991;DHT22;49084;48.204;16.202;2023-06-26T13:11:46;36.50;40.40
62991;DHT22;49084;48.204;16.202;2023-06-26T13:14:11;36.50;40.60
62991;DHT22;49084;48.204;16.202;2023-06-26T13:16:38;37.20;40.70
62991;DHT22;49084;48.204;16.202;2023-06-26T13:19:03;37.70;41.00
62991;DHT22;49084;48.204;16.202;2023-06-26T13:21:29;38.40;40.90
62991;DHT22;49084;48.204;16.202;2023-06-26T13:23:55;39.00;38.80
62991;DHT22;49084;48.204;16.202;2023-06-26T13:26:22;39.30;38.30
62991;DHT22;49084;48.204;16.202;2023-06-26T13:28:48;39.10;38.00
62991;DHT22;49084;48.204;16.202;2023-06-26T13:31:14;38.80;38.40
62991;DHT22;49084;48.204;16.202;2023-06-26T13:33:40;37.90;39.50
62991;DHT22;49084;48.204;16.202;2023-06-26T13:36:06;38.40;39.90
62991;DHT22;49084;48.204;16.202;2023-06-26T13:38:33;38.60;40.20
62991;DHT22;49084;48.204;16.202;2023-06-26T13:41:00;38.90;38.30
62991;DHT22;49084;48.204;16.202;2023-06-26T13:43:29;39.20;39.00
62991;DHT22;49084;48.204;16.202;2023-06-26T13:45:55;39.70;38.00
62991;DHT22;49084;48.204;16.202;2023-06-26T13:48:21;39.60;38.40
62991;DHT22;49084;48.204;16.202;2023-06-26T13:50:47;39.30;38.30
62991;DHT22;49084;48.204;16.202;2023-06-26T13:53:13;38.60;38.70
62991;DHT22;49084;48.204;16.202;2023-06-26T13:55:40;38.30;39.10
62991;DHT22;49084;48.204;16.202;2023-06-26T13:58:06;38.20;40.10
62991;DHT22;49084;48.204;16.202;2023-06-26T14:00:32;38.50;39.40
62991;DHT22;49084;48.204;16.202;2023-06-26T14:03:03;38.70;39.70
62991;DHT22;49084;48.204;16.202;2023-06-26T14:05:36;38.00;39.10
62991;DHT22;49084;48.204;16.202;2023-06-26T14:08:03;37.40;40.70
62991;DHT22;49084;48.204;16.202;2023-06-26T14:10:30;36.80;40.20
62991;DHT22;49084;48.204;16.202;2023-06-26T14:12:56;36.90;41.60
62991;DHT22;49084;48.204;16.202;2023-06-26T14:15:21;37.80;40.50
62991;DHT22;49084;48.204;16.202;2023-06-26T14:17:47;38.00;40.10
62991;DHT22;49084;48.204;16.202;2023-06-26T14:20:14;37.40;40.20
62991;DHT22;49084;48.204;16.202;2023-06-26T14:22:40;36.60;40.70
62991;DHT22;49084;48.204;16.202;2023-06-26T14:25:09;35.70;40.90
62991;DHT22;49084;48.204;16.202;2023-06-26T14:27:36;35.70;41.10
62991;DHT22;49084;48.204;16.202;2023-06-26T14:30:03;35.80;41.20
62991;DHT22;49084;48.204;16.202;2023-06-26T14:32:29;36.20;41.30
62991;DHT22;49084;48.204;16.202;2023-06-26T14:34:56;36.60;40.80
62991;DHT22;49084;48.204;16.202;2023-06-26T14:37:22;37.20;40.10
62991;DHT22;49084;48.204;16.202;2023-06-26T14:39:47;37.50;39.10
62991;DHT22;49084;48.204;16.202;2023-06-26T14:42:13;37.40;39.50
62991;DHT22;49084;48.204;16.202;2023-06-26T14:44:39;37.30;39.10
62991;DHT22;49084;48.204;16.202;2023-06-26T14:47:04;36.90;39.50
62991;DHT22;49084;48.204;16.202;2023-06-26T14:49:30;36.80;39.50
62991;DHT22;49084;48.204;16.202;2023-06-26T14:51:56;36.50;41.70
62991;DHT22;49084;48.204;16.202;2023-06-26T14:54:22;36.90;39.20
62991;DHT22;49084;48.204;16.202;2023-06-26T14:56:47;36.80;40.00
62991;DHT22;49084;48.204;16.202;2023-06-26T14:59:13;37.00;40.30
62991;DHT22;49084;48.204;16.202;2023-06-26T15:01:39;36.90;41.00
62991;DHT22;49084;48.204;16.202;2023-06-26T15:04:06;37.20;40.50
62991;DHT22;49084;48.204;16.202;2023-06-26T15:06:32;37.20;40.70
62991;DHT22;49084;48.204;16.202;2023-06-26T15:08:58;36.60;40.20
62991;DHT22;49084;48.204;16.202;2023-06-26T15:11:24;36.90;41.00
62991;DHT22;49084;48.204;16.202;2023-06-26T15:13:49;37.40;40.80
62991;DHT22;49084;48.204;16.202;2023-06-26T15:16:15;37.70;40.70
62991;DHT22;49084;48.204;16.202;2023-06-26T15:18:41;37.40;40.30
62991;DHT22;49084;48.204;16.202;2023-06-26T15:21:07;36.80;40.90
62991;DHT22;49084;48.204;16.202;2023-06-26T15:23:33;36.40;40.20
62991;DHT22;49084;48.204;16.202;2023-06-26T15:25:59;36.10;41.10